sensor_id;sensor_type;location;lat;lon;timestamp;P1;durP1;ratioP1;P2;durP2;ratioP2
20078;SDS011;10199;48.850;8.924;2023-09-30T00:00:36;3.23;;;2.27;;
20078;SDS011;10199;48.850;8.924;2023-09-30T00:03:04;5.03;;;2.27;;
20078;SDS011;10199;48.850;8.924;2023-09-30T00:05:32;3.50;;;2.13;;
20078;SDS011;10199;48.850;8.924;2023-09-30T00:07:59;3.47;;;2.27;;
20078;SDS011;10199;48.850;8.924;2023-09-30T00:10:27;4.60;;;2.63;;
20078;SDS011;10199;48.850;8.924;2023-09-30T00:12:58;3.90;;;2.10;;
20078;SDS011;10199;48.850;8.924;2023-09-30T00:15:26;5.23;;;2.70;;
20078;SDS011;10199;48.850;8.924;2023-09-30T00:17:54;2.40;;;1.77;;
20078;SDS011;10199;48.850;8.924;2023-09-30T00:20:22;4.07;;;2.10;;
20078;SDS011;10199;48.850;8.924;2023-09-30T00:22:50;3.83;;;2.17;;
20078;SDS011;10199;48.850;8.924;2023-09-30T00:25:18;3.53;;;2.20;;
20078;SDS011;10199;48.850;8.924;2023-09-30T00:27:47;6.27;;;2.57;;
20078;SDS011;10199;48.850;8.924;2023-09-30T00:30:16;3.47;;;2.50;;
20078;SDS011;10199;48.850;8.924;2023-09-30T00:32:44;3.50;;;2.20;;
20078;SDS011;10199;48.850;8.924;2023-09-30T00:35:13;4.07;;;2.73;;
20078;SDS011;10199;48.850;8.924;2023-09-30T00:37:42;4.73;;;2.30;;
20078;SDS011;10199;48.850;8.924;2023-09-30T00:40:11;5.03;;;2.63;;
20078;SDS011;10199;48.850;8.924;2023-09-30T00:42:40;3.40;;;2.30;;
20078;SDS011;10199;48.850;8.924;2023-09-30T00:45:09;3.97;;;2.40;;
20078;SDS011;10199;48.850;8.924;2023-09-30T00:47:38;3.67;;;2.60;;
20078;SDS011;10199;48.850;8.924;2023-09-30T00:50:09;3.20;;;2.30;;
20078;SDS011;10199;48.850;8.924;2023-09-30T00:52:38;5.60;;;2.30;;
20078;SDS011;10199;48.850;8.924;2023-09-30T00:55:08;4.13;;;2.47;;
20078;SDS011;10199;48.850;8.924;2023-09-30T00:57:37;3.53;;;2.20;;
20078;SDS011;10199;48.850;8.924;2023-09-30T01:00:06;3.30;;;2.37;;
20078;SDS011;10199;48.850;8.924;2023-09-30T01:02:39;5.07;;;2.40;;
20078;SDS011;10199;48.850;8.924;2023-09-30T01:05:08;5.57;;;2.47;;
20078;SDS011;10199;48.850;8.924;2023-09-30T01:07:36;3.87;;;2.80;;
20078;SDS011;10199;48.850;8.924;2023-09-30T01:10:05;3.77;;;2.57;;
20078;SDS011;10199;48.850;8.924;2023-09-30T01:12:34;3.93;;;2.70;;
20078;SDS011;10199;48.850;8.924;2023-09-30T01:15:02;4.90;;;2.70;;
20078;SDS011;10199;48.850;8.924;2023-09-30T01:17:33;5.00;;;2.60;;
20078;SDS011;10199;48.850;8.924;2023-09-30T01:20:03;4.10;;;2.80;;
20078;SDS011;10199;48.850;8.924;2023-09-30T01:22:34;4.50;;;3.20;;
20078;SDS011;10199;48.850;8.924;2023-09-30T01:25:02;5.27;;;3.23;;
20078;SDS011;10199;48.850;8.924;2023-09-30T01:27:31;4.57;;;3.10;;
20078;SDS011;10199;48.850;8.924;2023-09-30T01:29:59;5.37;;;3.70;;
20078;SDS011;10199;48.850;8.924;2023-09-30T01:32:27;4.60;;;3.17;;
20078;SDS011;10199;48.850;8.924;2023-09-30T01:34:55;6.37;;;4.03;;
20078;SDS011;10199;48.850;8.924;2023-09-30T01:37:26;3.53;;;2.93;;
20078;SDS011;10199;48.850;8.924;2023-09-30T01:39:56;4.37;;;3.27;;
20078;SDS011;10199;48.850;8.924;2023-09-30T01:42:24;3.50;;;3.10;;
20078;SDS011;10199;48.850;8.924;2023-09-30T01:44:52;4.67;;;3.00;;
20078;SDS011;10199;48.850;8.924;2023-09-30T01:47:21;4.93;;;3.97;;
20078;SDS011;10199;48.850;8.924;2023-09-30T01:49:49;6.93;;;3.83;;
20078;SDS011;10199;48.850;8.924;2023-09-30T01:52:16;5.50;;;3.53;;
20078;SDS011;10199;48.850;8.924;2023-09-30T01:54:44;4.80;;;3.00;;
20078;SDS011;10199;48.850;8.924;2023-09-30T01:57:15;4.03;;;3.30;;
20078;SDS011;10199;48.850;8.924;2023-09-30T01:59:43;4.67;;;3.13;;
20078;SDS011;10199;48.850;8.924;2023-09-30T02:02:11;5.17;;;3.27;;
20078;SDS011;10199;48.850;8.924;2023-09-30T02:04:39;5.83;;;3.20;;
20078;SDS011;10199;48.850;8.924;2023-09-30T02:07:07;4.80;;;3.10;;
20078;SDS011;10199;48.850;8.924;2023-09-30T02:09:35;4.23;;;2.97;;
20078;SDS011;10199;48.850;8.924;2023-09-30T02:12:04;3.97;;;3.13;;
20078;SDS011;10199;48.850;8.924;2023-09-30T02:14:36;5.70;;;3.30;;
20078;SDS011;10199;48.850;8.924;2023-09-30T02:17:05;4.57;;;3.20;;
20078;SDS011;10199;48.850;8.924;2023-09-30T02:19:33;4.80;;;3.50;;
20078;SDS011;10199;48.850;8.924;2023-09-30T02:22:02;4.97;;;3.30;;
20078;SDS011;10199;48.850;8.924;2023-09-30T02:24:31;5.03;;;3.47;;
20078;SDS011;10199;48.850;8.924;2023-09-30T02:26:59;5.03;;;2.97;;
20078;SDS011;10199;48.850;8.924;2023-09-30T02:29:27;5.07;;;3.13;;
20078;SDS011;10199;48.850;8.924;2023-09-30T02:31:57;4.70;;;2.97;;
20078;SDS011;10199;48.850;8.924;2023-09-30T02:34:26;3.63;;;3.03;;
20078;SDS011;10199;48.850;8.924;2023-09-30T02:36:54;5.97;;;3.10;;
20078;SDS011;10199;48.850;8.924;2023-09-30T02:39:23;5.67;;;2.93;;
20078;SDS011;10199;48.850;8.924;2023-09-30T02:41:53;5.27;;;3.13;;
20078;SDS011;10199;48.850;8.924;2023-09-30T02:44:20;5.00;;;2.77;;
20078;SDS011;10199;48.850;8.924;2023-09-30T02:46:48;5.67;;;2.53;;
20078;SDS011;10199;48.850;8.924;2023-09-30T02:49:18;3.67;;;2.47;;
20078;SDS011;10199;48.850;8.924;2023-09-30T02:51:46;3.23;;;2.53;;
20078;SDS011;10199;48.850;8.924;2023-09-30T02:54:14;4.23;;;2.97;;
20078;SDS011;10199;48.850;8.924;2023-09-30T02:56:43;5.03;;;2.67;;
20078;SDS011;10199;48.850;8.924;2023-09-30T02:59:13;5.67;;;3.63;;
20078;SDS011;10199;48.850;8.924;2023-09-30T03:01:41;3.30;;;2.80;;
20078;SDS011;10199;48.850;8.924;2023-09-30T03:04:09;5.23;;;2.87;;
20078;SDS011;10199;48.850;8.924;2023-09-30T03:06:40;4.50;;;3.10;;
20078;SDS011;10199;48.850;8.924;2023-09-30T03:09:09;5.13;;;3.17;;
20078;SDS011;10199;48.850;8.924;2023-09-30T03:11:39;4.40;;;2.83;;
20078;SDS011;10199;48.850;8.924;2023-09-30T03:14:09;3.80;;;2.70;;
20078;SDS011;10199;48.850;8.924;2023-09-30T03:16:39;3.90;;;2.70;;
20078;SDS011;10199;48.850;8.924;2023-09-30T03:19:08;6.83;;;3.20;;
20078;SDS011;10199;48.850;8.924;2023-09-30T03:21:38;3.90;;;2.90;;
20078;SDS011;10199;48.850;8.924;2023-09-30T03:24:08;5.57;;;3.20;;
20078;SDS011;10199;48.850;8.924;2023-09-30T03:26:36;4.27;;;2.70;;
20078;SDS011;10199;48.850;8.924;2023-09-30T03:29:07;4.67;;;2.80;;
20078;SDS011;10199;48.850;8.924;2023-09-30T03:31:36;3.80;;;2.73;;
20078;SDS011;10199;48.850;8.924;2023-09-30T03:34:04;4.17;;;2.90;;
20078;SDS011;10199;48.850;8.924;2023-09-30T03:36:33;3.90;;;2.80;;
20078;SDS011;10199;48.850;8.924;2023-09-30T03:39:02;5.23;;;3.20;;
20078;SDS011;10199;48.850;8.924;2023-09-30T03:41:36;3.87;;;2.97;;
20078;SDS011;10199;48.850;8.924;2023-09-30T03:44:04;4.57;;;3.03;;
20078;SDS011;10199;48.850;8.924;2023-09-30T03:46:32;5.23;;;3.17;;
20078;SDS011;10199;48.850;8.924;2023-09-30T03:49:00;5.17;;;3.57;;
20078;SDS011;10199;48.850;8.924;2023-09-30T03:51:29;4.37;;;3.00;;
20078;SDS011;10199;48.850;8.924;2023-09-30T03:53:57;4.33;;;2.83;;
20078;SDS011;10199;48.850;8.924;2023-09-30T03:56:25;5.67;;;3.53;;
20078;SDS011;10199;48.850;8.924;2023-09-30T03:58:54;6.57;;;3.53;;
20078;SDS011;10199;48.850;8.924;2023-09-30T04:01:22;9.37;;;3.93;;
20078;SDS011;10199;48.850;8.924;2023-09-30T04:03:52;4.83;;;3.73;;
20078;SDS011;10199;48.850;8.924;2023-09-30T04:06:22;4.83;;;3.63;;
20078;SDS011;10199;48.850;8.924;2023-09-30T04:08:50;5.57;;;3.73;;
20078;SDS011;10199;48.850;8.924;2023-09-30T04:11:18;7.07;;;3.77;;
20078;SDS011;10199;48.850;8.924;2023-09-30T04:13:47;5.17;;;3.33;;
20078;SDS011;10199;48.850;8.924;2023-09-30T04:16:17;5.37;;;3.50;;
20078;SDS011;10199;48.850;8.924;2023-09-30T04:18:46;5.43;;;3.40;;
20078;SDS011;10199;48.850;8.924;2023-09-30T04:21:16;4.93;;;3.37;;
20078;SDS011;10199;48.850;8.924;2023-09-30T04:23:44;4.57;;;3.53;;
20078;SDS011;10199;48.850;8.924;2023-09-30T04:26:13;4.37;;;3.57;;
20078;SDS011;10199;48.850;8.924;2023-09-30T04:28:41;5.77;;;3.70;;
20078;SDS011;10199;48.850;8.924;2023-09-30T04:31:10;6.23;;;3.50;;
20078;SDS011;10199;48.850;8.924;2023-09-30T04:33:41;5.67;;;3.40;;
20078;SDS011;10199;48.850;8.924;2023-09-30T04:36:09;6.80;;;3.13;;
20078;SDS011;10199;48.850;8.924;2023-09-30T04:38:37;5.17;;;2.83;;
20078;SDS011;10199;48.850;8.924;2023-09-30T04:41:05;4.73;;;3.20;;
20078;SDS011;10199;48.850;8.924;2023-09-30T04:43:34;4.90;;;3.13;;
20078;SDS011;10199;48.850;8.924;2023-09-30T04:46:04;4.97;;;3.20;;
20078;SDS011;10199;48.850;8.924;2023-09-30T04:48:33;7.13;;;3.33;;
20078;SDS011;10199;48.850;8.924;2023-09-30T04:51:05;4.67;;;3.17;;
20078;SDS011;10199;48.850;8.924;2023-09-30T04:53:34;8.80;;;3.33;;
20078;SDS011;10199;48.850;8.924;2023-09-30T04:56:02;5.37;;;3.57;;
20078;SDS011;10199;48.850;8.924;2023-09-30T04:58:31;4.57;;;3.73;;
20078;SDS011;10199;48.850;8.924;2023-09-30T05:00:59;5.17;;;3.30;;
20078;SDS011;10199;48.850;8.924;2023-09-30T05:03:27;6.40;;;3.30;;
20078;SDS011;10199;48.850;8.924;2023-09-30T05:05:55;6.13;;;3.60;;
20078;SDS011;10199;48.850;8.924;2023-09-30T05:08:26;5.43;;;3.60;;
20078;SDS011;10199;48.850;8.924;2023-09-30T05:10:55;4.50;;;3.53;;
20078;SDS011;10199;48.850;8.924;2023-09-30T05:13:23;6.90;;;4.30;;
20078;SDS011;10199;48.850;8.924;2023-09-30T05:15:52;3.67;;;3.10;;
20078;SDS011;10199;48.850;8.924;2023-09-30T05:18:20;6.23;;;3.83;;
20078;SDS011;10199;48.850;8.924;2023-09-30T05:20:48;7.67;;;3.97;;
20078;SDS011;10199;48.850;8.924;2023-09-30T05:23:16;6.90;;;3.33;;
20078;SDS011;10199;48.850;8.924;2023-09-30T05:25:46;6.27;;;4.03;;
20078;SDS011;10199;48.850;8.924;2023-09-30T05:28:15;10.10;;;4.60;;
20078;SDS011;10199;48.850;8.924;2023-09-30T05:30:43;4.93;;;3.70;;
20078;SDS011;10199;48.850;8.924;2023-09-30T05:33:12;5.77;;;3.47;;
20078;SDS011;10199;48.850;8.924;2023-09-30T05:35:41;5.50;;;4.33;;
20078;SDS011;10199;48.850;8.924;2023-09-30T05:38:09;10.63;;;4.70;;
20078;SDS011;10199;48.850;8.924;2023-09-30T05:40:39;7.33;;;4.70;;
20078;SDS011;10199;48.850;8.924;2023-09-30T05:43:09;5.73;;;4.20;;
20078;SDS011;10199;48.850;8.924;2023-09-30T05:45:40;6.83;;;5.03;;
20078;SDS011;10199;48.850;8.924;2023-09-30T05:48:15;10.80;;;4.33;;
20078;SDS011;10199;48.850;8.924;2023-09-30T05:50:46;5.93;;;3.67;;
20078;SDS011;10199;48.850;8.924;2023-09-30T05:53:14;5.60;;;4.10;;
20078;SDS011;10199;48.850;8.924;2023-09-30T05:55:43;5.83;;;4.10;;
20078;SDS011;10199;48.850;8.924;2023-09-30T05:58:13;4.97;;;3.80;;
20078;SDS011;10199;48.850;8.924;2023-09-30T06:00:43;6.40;;;4.50;;
20078;SDS011;10199;48.850;8.924;2023-09-30T06:03:11;7.53;;;4.70;;
20078;SDS011;10199;48.850;8.924;2023-09-30T06:05:39;6.20;;;4.83;;
20078;SDS011;10199;48.850;8.924;2023-09-30T06:08:08;6.87;;;4.40;;
20078;SDS011;10199;48.850;8.924;2023-09-30T06:10:40;6.43;;;4.73;;
20078;SDS011;10199;48.850;8.924;2023-09-30T06:13:10;5.83;;;4.50;;
20078;SDS011;10199;48.850;8.924;2023-09-30T06:15:40;7.00;;;4.37;;
20078;SDS011;10199;48.850;8.924;2023-09-30T06:18:09;8.60;;;4.90;;
20078;SDS011;10199;48.850;8.924;2023-09-30T06:20:40;5.07;;;4.20;;
20078;SDS011;10199;48.850;8.924;2023-09-30T06:23:08;5.27;;;4.60;;
20078;SDS011;10199;48.850;8.924;2023-09-30T06:25:36;6.67;;;4.23;;
20078;SDS011;10199;48.850;8.924;2023-09-30T06:28:06;8.23;;;4.80;;
20078;SDS011;10199;48.850;8.924;2023-09-30T06:30:34;8.60;;;5.10;;
20078;SDS011;10199;48.850;8.924;2023-09-30T06:33:05;7.23;;;4.80;;
20078;SDS011;10199;48.850;8.924;2023-09-30T06:35:34;5.33;;;4.60;;
20078;SDS011;10199;48.850;8.924;2023-09-30T06:38:05;7.70;;;4.80;;
20078;SDS011;10199;48.850;8.924;2023-09-30T06:40:34;9.77;;;5.53;;
20078;SDS011;10199;48.850;8.924;2023-09-30T06:43:04;7.10;;;4.90;;
20078;SDS011;10199;48.850;8.924;2023-09-30T06:45:32;7.00;;;4.63;;
20078;SDS011;10199;48.850;8.924;2023-09-30T06:48:01;6.73;;;4.60;;
20078;SDS011;10199;48.850;8.924;2023-09-30T06:50:30;6.07;;;4.40;;
20078;SDS011;10199;48.850;8.924;2023-09-30T06:52:58;10.10;;;4.90;;
20078;SDS011;10199;48.850;8.924;2023-09-30T06:55:26;5.53;;;4.80;;
20078;SDS011;10199;48.850;8.924;2023-09-30T06:57:55;8.13;;;5.33;;
20078;SDS011;10199;48.850;8.924;2023-09-30T07:00:23;9.37;;;5.43;;
20078;SDS011;10199;48.850;8.924;2023-09-30T07:02:52;7.43;;;5.43;;
20078;SDS011;10199;48.850;8.924;2023-09-30T07:05:20;6.67;;;5.20;;
20078;SDS011;10199;48.850;8.924;2023-09-30T07:07:50;8.97;;;5.17;;
20078;SDS011;10199;48.850;8.924;2023-09-30T07:10:18;6.90;;;4.90;;
20078;SDS011;10199;48.850;8.924;2023-09-30T07:12:46;9.77;;;5.60;;
20078;SDS011;10199;48.850;8.924;2023-09-30T07:15:14;6.77;;;4.80;;
20078;SDS011;10199;48.850;8.924;2023-09-30T07:17:41;10.07;;;5.47;;
20078;SDS011;10199;48.850;8.924;2023-09-30T07:20:11;8.40;;;5.53;;
20078;SDS011;10199;48.850;8.924;2023-09-30T07:22:39;7.80;;;5.20;;
20078;SDS011;10199;48.850;8.924;2023-09-30T07:25:12;6.47;;;5.67;;
20078;SDS011;10199;48.850;8.924;2023-09-30T07:27:41;8.83;;;5.93;;
20078;SDS011;10199;48.850;8.924;2023-09-30T07:30:09;8.30;;;5.07;;
20078;SDS011;10199;48.850;8.924;2023-09-30T07:32:38;11.50;;;5.70;;
20078;SDS011;10199;48.850;8.924;2023-09-30T07:35:07;9.70;;;6.20;;
20078;SDS011;10199;48.850;8.924;2023-09-30T07:37:35;7.50;;;5.63;;
20078;SDS011;10199;48.850;8.924;2023-09-30T07:40:04;7.90;;;5.57;;
20078;SDS011;10199;48.850;8.924;2023-09-30T07:42:34;7.60;;;5.93;;
20078;SDS011;10199;48.850;8.924;2023-09-30T07:45:02;9.67;;;5.77;;
20078;SDS011;10199;48.850;8.924;2023-09-30T07:47:31;6.70;;;5.90;;
20078;SDS011;10199;48.850;8.924;2023-09-30T07:50:00;7.27;;;5.43;;
20078;SDS011;10199;48.850;8.924;2023-09-30T07:52:29;7.03;;;5.23;;
20078;SDS011;10199;48.850;8.924;2023-09-30T07:54:56;8.63;;;5.17;;
20078;SDS011;10199;48.850;8.924;2023-09-30T07:57:25;9.17;;;5.20;;
20078;SDS011;10199;48.850;8.924;2023-09-30T07:59:54;8.20;;;4.87;;
20078;SDS011;10199;48.850;8.924;2023-09-30T08:02:22;9.57;;;5.40;;
20078;SDS011;10199;48.850;8.924;2023-09-30T08:04:54;7.93;;;5.20;;
20078;SDS011;10199;48.850;8.924;2023-09-30T08:07:22;8.80;;;4.83;;
20078;SDS011;10199;48.850;8.924;2023-09-30T08:09:50;7.07;;;4.60;;
20078;SDS011;10199;48.850;8.924;2023-09-30T08:12:18;8.17;;;4.77;;
20078;SDS011;10199;48.850;8.924;2023-09-30T08:14:46;9.77;;;4.93;;
20078;SDS011;10199;48.850;8.924;2023-09-30T08:17:16;6.45;;;4.25;;
20078;SDS011;10199;48.850;8.924;2023-09-30T08:19:44;7.75;;;4.35;;
20078;SDS011;10199;48.850;8.924;2023-09-30T08:22:14;7.25;;;4.68;;
20078;SDS011;10199;48.850;8.924;2023-09-30T08:24:42;6.03;;;4.60;;
20078;SDS011;10199;48.850;8.924;2023-09-30T08:27:11;7.18;;;4.25;;
20078;SDS011;10199;48.850;8.924;2023-09-30T08:29:39;6.50;;;4.82;;
20078;SDS011;10199;48.850;8.924;2023-09-30T08:32:07;7.82;;;4.70;;
20078;SDS011;10199;48.850;8.924;2023-09-30T08:34:36;6.55;;;4.15;;
20078;SDS011;10199;48.850;8.924;2023-09-30T08:37:04;6.55;;;4.18;;
20078;SDS011;10199;48.850;8.924;2023-09-30T08:39:32;6.07;;;4.07;;
20078;SDS011;10199;48.850;8.924;2023-09-30T08:42:00;6.38;;;3.85;;
20078;SDS011;10199;48.850;8.924;2023-09-30T08:44:29;5.65;;;3.42;;
20078;SDS011;10199;48.850;8.924;2023-09-30T08:46:57;5.82;;;3.97;;
20078;SDS011;10199;48.850;8.924;2023-09-30T08:49:26;6.70;;;3.72;;
20078;SDS011;10199;48.850;8.924;2023-09-30T08:51:56;6.45;;;3.80;;
20078;SDS011;10199;48.850;8.924;2023-09-30T08:54:26;5.28;;;4.03;;
20078;SDS011;10199;48.850;8.924;2023-09-30T08:56:54;5.70;;;3.75;;
20078;SDS011;10199;48.850;8.924;2023-09-30T08:59:22;6.18;;;3.42;;
20078;SDS011;10199;48.850;8.924;2023-09-30T09:01:51;6.05;;;3.60;;
20078;SDS011;10199;48.850;8.924;2023-09-30T09:04:19;4.72;;;3.13;;
20078;SDS011;10199;48.850;8.924;2023-09-30T09:06:47;6.55;;;3.83;;
20078;SDS011;10199;48.850;8.924;2023-09-30T09:09:17;7.03;;;3.80;;
20078;SDS011;10199;48.850;8.924;2023-09-30T09:11:48;8.05;;;3.80;;
20078;SDS011;10199;48.850;8.924;2023-09-30T09:14:17;7.57;;;3.70;;
20078;SDS011;10199;48.850;8.924;2023-09-30T09:16:50;4.60;;;3.50;;
20078;SDS011;10199;48.850;8.924;2023-09-30T09:19:20;5.90;;;3.78;;
20078;SDS011;10199;48.850;8.924;2023-09-30T09:21:55;5.15;;;3.15;;
20078;SDS011;10199;48.850;8.924;2023-09-30T09:24:29;5.25;;;3.60;;
20078;SDS011;10199;48.850;8.924;2023-09-30T09:27:04;5.90;;;3.03;;
20078;SDS011;10199;48.850;8.924;2023-09-30T09:29:33;5.70;;;3.15;;
20078;SDS011;10199;48.850;8.924;2023-09-30T09:32:08;6.28;;;2.55;;
20078;SDS011;10199;48.850;8.924;2023-09-30T09:34:38;7.00;;;3.17;;
20078;SDS011;10199;48.850;8.924;2023-09-30T09:37:13;3.83;;;2.75;;
20078;SDS011;10199;48.850;8.924;2023-09-30T09:39:51;6.43;;;3.30;;
20078;SDS011;10199;48.850;8.924;2023-09-30T09:42:29;4.80;;;2.88;;
20078;SDS011;10199;48.850;8.924;2023-09-30T09:45:01;4.72;;;3.30;;
20078;SDS011;10199;48.850;8.924;2023-09-30T09:47:32;5.22;;;3.08;;
20078;SDS011;10199;48.850;8.924;2023-09-30T09:50:02;4.88;;;2.92;;
20078;SDS011;10199;48.850;8.924;2023-09-30T09:52:31;5.82;;;2.97;;
20078;SDS011;10199;48.850;8.924;2023-09-30T09:55:03;6.00;;;3.17;;
20078;SDS011;10199;48.850;8.924;2023-09-30T09:57:33;5.55;;;3.25;;
20078;SDS011;10199;48.850;8.924;2023-09-30T10:00:03;3.70;;;2.95;;
20078;SDS011;10199;48.850;8.924;2023-09-30T10:02:39;5.22;;;3.05;;
20078;SDS011;10199;48.850;8.924;2023-09-30T10:05:07;6.65;;;3.15;;
20078;SDS011;10199;48.850;8.924;2023-09-30T10:07:39;4.75;;;3.03;;
20078;SDS011;10199;48.850;8.924;2023-09-30T10:10:28;5.72;;;3.35;;
20078;SDS011;10199;48.850;8.924;2023-09-30T10:12:57;5.53;;;3.40;;
20078;SDS011;10199;48.850;8.924;2023-09-30T10:15:38;6.22;;;3.22;;
20078;SDS011;10199;48.850;8.924;2023-09-30T10:18:07;4.68;;;3.45;;
20078;SDS011;10199;48.850;8.924;2023-09-30T10:20:40;3.95;;;2.90;;
20078;SDS011;10199;48.850;8.924;2023-09-30T10:23:17;5.03;;;3.15;;
20078;SDS011;10199;48.850;8.924;2023-09-30T10:25:53;5.55;;;2.92;;
20078;SDS011;10199;48.850;8.924;2023-09-30T10:28:37;5.70;;;3.13;;
20078;SDS011;10199;48.850;8.924;2023-09-30T10:31:12;5.75;;;3.58;;
20078;SDS011;10199;48.850;8.924;2023-09-30T10:36:48;6.10;;;3.20;;
20078;SDS011;10199;48.850;8.924;2023-09-30T10:48:32;5.43;;;3.50;;
20078;SDS011;10199;48.850;8.924;2023-09-30T10:51:11;5.10;;;3.22;;
20078;SDS011;10199;48.850;8.924;2023-09-30T10:53:43;6.47;;;3.45;;
20078;SDS011;10199;48.850;8.924;2023-09-30T10:56:13;5.97;;;3.13;;
20078;SDS011;10199;48.850;8.924;2023-09-30T10:58:43;5.40;;;3.70;;
20078;SDS011;10199;48.850;8.924;2023-09-30T11:01:12;5.18;;;3.08;;
20078;SDS011;10199;48.850;8.924;2023-09-30T11:03:41;6.50;;;3.38;;
20078;SDS011;10199;48.850;8.924;2023-09-30T11:06:11;5.57;;;3.80;;
20078;SDS011;10199;48.850;8.924;2023-09-30T11:08:45;7.82;;;3.42;;
20078;SDS011;10199;48.850;8.924;2023-09-30T11:11:18;6.75;;;3.60;;
20078;SDS011;10199;48.850;8.924;2023-09-30T11:13:47;6.97;;;4.30;;
20078;SDS011;10199;48.850;8.924;2023-09-30T11:16:15;5.70;;;3.35;;
20078;SDS011;10199;48.850;8.924;2023-09-30T11:18:43;5.18;;;3.78;;
20078;SDS011;10199;48.850;8.924;2023-09-30T11:21:11;5.88;;;3.70;;
20078;SDS011;10199;48.850;8.924;2023-09-30T11:23:40;7.90;;;3.75;;
20078;SDS011;10199;48.850;8.924;2023-09-30T11:26:09;5.72;;;3.53;;
20078;SDS011;10199;48.850;8.924;2023-09-30T11:28:38;5.75;;;3.38;;
20078;SDS011;10199;48.850;8.924;2023-09-30T11:31:09;5.20;;;3.38;;
20078;SDS011;10199;48.850;8.924;2023-09-30T11:33:49;7.32;;;3.97;;
20078;SDS011;10199;48.850;8.924;2023-09-30T11:36:19;5.82;;;3.63;;
20078;SDS011;10199;48.850;8.924;2023-09-30T11:38:48;6.28;;;3.88;;
20078;SDS011;10199;48.850;8.924;2023-09-30T11:41:17;6.82;;;3.60;;
20078;SDS011;10199;48.850;8.924;2023-09-30T11:43:58;5.07;;;3.42;;
20078;SDS011;10199;48.850;8.924;2023-09-30T11:46:30;9.57;;;3.95;;
20078;SDS011;10199;48.850;8.924;2023-09-30T11:49:00;8.02;;;4.40;;
20078;SDS011;10199;48.850;8.924;2023-09-30T11:51:41;6.35;;;3.83;;
20078;SDS011;10199;48.850;8.924;2023-09-30T11:54:11;5.97;;;3.75;;
20078;SDS011;10199;48.850;8.924;2023-09-30T11:56:43;6.20;;;3.70;;
20078;SDS011;10199;48.850;8.924;2023-09-30T11:59:11;7.10;;;4.53;;
20078;SDS011;10199;48.850;8.924;2023-09-30T12:01:41;5.90;;;3.72;;
20078;SDS011;10199;48.850;8.924;2023-09-30T12:04:10;6.80;;;4.40;;
20078;SDS011;10199;48.850;8.924;2023-09-30T12:06:38;6.85;;;4.40;;
20078;SDS011;10199;48.850;8.924;2023-09-30T12:09:06;6.30;;;4.10;;
20078;SDS011;10199;48.850;8.924;2023-09-30T12:11:40;6.88;;;4.22;;
20078;SDS011;10199;48.850;8.924;2023-09-30T12:14:10;9.85;;;4.28;;
20078;SDS011;10199;48.850;8.924;2023-09-30T12:16:41;8.20;;;4.78;;
20078;SDS011;10199;48.850;8.924;2023-09-30T12:19:11;6.25;;;4.22;;
20078;SDS011;10199;48.850;8.924;2023-09-30T12:21:42;8.35;;;4.40;;
20078;SDS011;10199;48.850;8.924;2023-09-30T12:24:10;7.28;;;4.55;;
20078;SDS011;10199;48.850;8.924;2023-09-30T12:26:41;7.15;;;4.30;;
20078;SDS011;10199;48.850;8.924;2023-09-30T12:29:12;6.97;;;4.80;;
20078;SDS011;10199;48.850;8.924;2023-09-30T12:31:44;8.05;;;5.00;;
20078;SDS011;10199;48.850;8.924;2023-09-30T12:34:17;7.68;;;4.70;;
20078;SDS011;10199;48.850;8.924;2023-09-30T12:36:46;7.05;;;4.30;;
20078;SDS011;10199;48.850;8.924;2023-09-30T12:39:14;7.80;;;4.38;;
20078;SDS011;10199;48.850;8.924;2023-09-30T12:41:43;7.25;;;4.55;;
20078;SDS011;10199;48.850;8.924;2023-09-30T12:44:12;6.35;;;4.00;;
20078;SDS011;10199;48.850;8.924;2023-09-30T12:46:40;6.35;;;3.90;;
20078;SDS011;10199;48.850;8.924;2023-09-30T12:49:09;5.88;;;3.55;;
20078;SDS011;10199;48.850;8.924;2023-09-30T12:51:38;7.88;;;4.70;;
20078;SDS011;10199;48.850;8.924;2023-09-30T12:54:06;7.97;;;4.55;;
20078;SDS011;10199;48.850;8.924;2023-09-30T12:56:34;6.45;;;4.15;;
20078;SDS011;10199;48.850;8.924;2023-09-30T12:59:02;8.77;;;4.90;;
20078;SDS011;10199;48.850;8.924;2023-09-30T13:01:31;6.25;;;4.45;;
20078;SDS011;10199;48.850;8.924;2023-09-30T13:04:01;6.13;;;4.10;;
20078;SDS011;10199;48.850;8.924;2023-09-30T13:06:33;9.10;;;4.13;;
20078;SDS011;10199;48.850;8.924;2023-09-30T13:09:02;6.72;;;4.50;;
20078;SDS011;10199;48.850;8.924;2023-09-30T13:11:31;8.75;;;4.60;;
20078;SDS011;10199;48.850;8.924;2023-09-30T13:14:00;7.00;;;4.22;;
20078;SDS011;10199;48.850;8.924;2023-09-30T13:16:28;6.88;;;4.00;;
20078;SDS011;10199;48.850;8.924;2023-09-30T13:18:57;7.28;;;4.13;;
20078;SDS011;10199;48.850;8.924;2023-09-30T13:21:25;9.43;;;4.38;;
20078;SDS011;10199;48.850;8.924;2023-09-30T13:23:54;7.13;;;4.10;;
20078;SDS011;10199;48.850;8.924;2023-09-30T13:26:22;8.55;;;4.57;;
20078;SDS011;10199;48.850;8.924;2023-09-30T13:28:50;6.05;;;3.80;;
20078;SDS011;10199;48.850;8.924;2023-09-30T13:31:18;6.88;;;4.30;;
20078;SDS011;10199;48.850;8.924;2023-09-30T13:33:46;6.07;;;4.18;;
20078;SDS011;10199;48.850;8.924;2023-09-30T13:36:14;5.85;;;3.97;;
20078;SDS011;10199;48.850;8.924;2023-09-30T13:38:42;10.25;;;4.80;;
20078;SDS011;10199;48.850;8.924;2023-09-30T13:41:12;5.93;;;3.72;;
20078;SDS011;10199;48.850;8.924;2023-09-30T13:43:40;8.65;;;4.45;;
20078;SDS011;10199;48.850;8.924;2023-09-30T13:46:08;8.18;;;4.20;;
20078;SDS011;10199;48.850;8.924;2023-09-30T13:48:36;7.00;;;4.60;;
20078;SDS011;10199;48.850;8.924;2023-09-30T13:51:04;7.05;;;4.43;;
20078;SDS011;10199;48.850;8.924;2023-09-30T13:53:33;7.38;;;4.05;;
20078;SDS011;10199;48.850;8.924;2023-09-30T13:56:01;6.78;;;4.38;;
20078;SDS011;10199;48.850;8.924;2023-09-30T13:58:31;7.18;;;4.20;;
20078;SDS011;10199;48.850;8.924;2023-09-30T14:00:59;5.95;;;4.20;;
20078;SDS011;10199;48.850;8.924;2023-09-30T14:03:28;7.28;;;4.43;;
20078;SDS011;10199;48.850;8.924;2023-09-30T14:05:56;8.25;;;4.50;;
20078;SDS011;10199;48.850;8.924;2023-09-30T14:08:24;7.60;;;4.68;;
20078;SDS011;10199;48.850;8.924;2023-09-30T14:10:52;7.75;;;4.53;;
20078;SDS011;10199;48.850;8.924;2023-09-30T14:13:20;8.30;;;5.03;;
20078;SDS011;10199;48.850;8.924;2023-09-30T14:15:51;5.75;;;3.92;;
20078;SDS011;10199;48.850;8.924;2023-09-30T14:18:19;5.90;;;4.10;;
20078;SDS011;10199;48.850;8.924;2023-09-30T14:20:47;7.25;;;4.57;;
20078;SDS011;10199;48.850;8.924;2023-09-30T14:23:16;6.80;;;4.47;;
20078;SDS011;10199;48.850;8.924;2023-09-30T14:25:44;7.43;;;4.60;;
20078;SDS011;10199;48.850;8.924;2023-09-30T14:28:12;6.85;;;4.45;;
20078;SDS011;10199;48.850;8.924;2023-09-30T14:30:41;8.27;;;4.88;;
20078;SDS011;10199;48.850;8.924;2023-09-30T14:33:12;6.65;;;4.03;;
20078;SDS011;10199;48.850;8.924;2023-09-30T14:35:40;5.82;;;3.72;;
20078;SDS011;10199;48.850;8.924;2023-09-30T14:38:10;7.47;;;4.68;;
20078;SDS011;10199;48.850;8.924;2023-09-30T14:40:38;5.88;;;4.28;;
20078;SDS011;10199;48.850;8.924;2023-09-30T14:43:07;6.68;;;4.63;;
20078;SDS011;10199;48.850;8.924;2023-09-30T14:45:37;8.27;;;4.57;;
20078;SDS011;10199;48.850;8.924;2023-09-30T14:48:05;5.85;;;4.07;;
20078;SDS011;10199;48.850;8.924;2023-09-30T14:50:35;7.53;;;4.43;;
20078;SDS011;10199;48.850;8.924;2023-09-30T14:53:03;7.50;;;4.00;;
20078;SDS011;10199;48.850;8.924;2023-09-30T14:55:32;5.85;;;3.95;;
20078;SDS011;10199;48.850;8.924;2023-09-30T14:58:00;7.43;;;4.07;;
20078;SDS011;10199;48.850;8.924;2023-09-30T15:00:28;5.93;;;3.88;;
20078;SDS011;10199;48.850;8.924;2023-09-30T15:02:57;8.65;;;4.43;;
20078;SDS011;10199;48.850;8.924;2023-09-30T15:05:24;8.77;;;4.90;;
20078;SDS011;10199;48.850;8.924;2023-09-30T15:07:54;6.20;;;4.40;;
20078;SDS011;10199;48.850;8.924;2023-09-30T15:10:22;6.63;;;4.38;;
20078;SDS011;10199;48.850;8.924;2023-09-30T15:12:50;8.45;;;4.85;;